Terminal Aerodrome Forecast
Issued by NWS Cleveland, OH

Home | Current Version | Previous Version | Graphics & Text | Print | Product List | Glossary Off
Versions: 1 2 3 4 5 6 7 8 9 10 11 12 13 14 15 16 17 18 19

903
FTUS41 KCLE 030521
TAFCAK
TAF
KCAK 030521Z 0306/0406 35005KT P6SM SCT250
     FM030900 36004KT 6SM BR OVC060
     FM031000 01005KT 6SM BR OVC025
     FM031500 33006KT P6SM BKN060
     FM040000 VRB03KT P6SM BKN100
     FM040300 VRB03KT P6SM BKN250=

USA.gov is the U.S. government's official web portal to all federal, state and local government web resources and services.